createdAt,value
2023-04-18T00:02:19.219Z,12.93
2023-04-18T00:05:22.822Z,12.98
2023-04-18T00:08:25.605Z,12.92
2023-04-18T00:11:28.645Z,12.88
2023-04-18T00:14:31.248Z,12.79
2023-04-18T00:17:35.616Z,12.82
2023-04-18T00:20:39.323Z,12.97
2023-04-18T00:23:43.258Z,12.83
2023-04-18T00:26:46.137Z,12.79
2023-04-18T00:29:49.701Z,12.77
2023-04-18T00:32:52.307Z,12.69
2023-04-18T00:35:55.226Z,12.72
2023-04-18T00:38:57.874Z,12.68
2023-04-18T00:42:01.564Z,12.63
2023-04-18T00:45:04.531Z,12.65
2023-04-18T00:48:07.688Z,12.66
2023-04-18T00:51:11.544Z,12.68
2023-04-18T00:54:15.086Z,12.68
2023-04-18T00:57:17.925Z,12.68
2023-04-18T01:00:22.043Z,12.68
2023-04-18T01:03:26.191Z,12.71
2023-04-18T01:06:29.432Z,12.82
2023-04-18T01:09:32.402Z,12.63
2023-04-18T01:12:37.596Z,12.76
2023-04-18T01:15:44.755Z,12.83
2023-04-18T01:18:47.589Z,12.87
2023-04-18T01:21:50.601Z,12.79
2023-04-18T01:24:53.424Z,12.82
2023-04-18T01:27:58.780Z,12.75
2023-04-18T01:31:03.478Z,12.72
2023-04-18T01:34:06.540Z,12.76
2023-04-18T01:37:09.802Z,12.81
2023-04-18T01:40:12.568Z,12.78
2023-04-18T01:43:15.429Z,12.76
2023-04-18T01:46:17.958Z,12.84
2023-04-18T01:49:20.940Z,12.66
2023-04-18T01:52:25.284Z,12.71
2023-04-18T01:55:28.150Z,12.74
2023-04-18T01:58:30.761Z,12.73
2023-04-18T02:01:33.598Z,12.72
2023-04-18T02:04:36.458Z,12.70
2023-04-18T02:07:40.309Z,12.67
2023-04-18T02:10:43.508Z,12.53
2023-04-18T02:13:46.094Z,12.70
2023-04-18T02:16:48.978Z,12.69
2023-04-18T02:19:52.784Z,12.73
2023-04-18T02:22:55.618Z,12.74
2023-04-18T02:25:58.258Z,12.74
2023-04-18T02:29:01.539Z,12.84
2023-04-18T02:32:05.442Z,12.87
2023-04-18T02:35:08.485Z,12.78
2023-04-18T02:38:10.985Z,12.72
2023-04-18T02:41:17.456Z,12.77
2023-04-18T02:44:20.640Z,12.66
2023-04-18T02:48:03.498Z,12.70
2023-04-18T02:51:07.955Z,12.68
2023-04-18T02:54:11.600Z,12.64
2023-04-18T02:57:14.764Z,12.61
2023-04-18T03:00:19.708Z,12.68
2023-04-18T03:03:24.056Z,12.64
2023-04-18T03:06:27.939Z,12.64
2023-04-18T03:09:30.842Z,12.61
2023-04-18T03:12:34.615Z,12.65
2023-04-18T03:15:38.036Z,12.78
2023-04-18T03:18:41.333Z,12.79
2023-04-18T03:21:44.140Z,12.63
2023-04-18T03:24:47.810Z,12.69
2023-04-18T03:27:50.934Z,12.60
2023-04-18T03:30:54.985Z,12.55
2023-04-18T03:33:58.225Z,12.52
2023-04-18T03:37:02.245Z,12.41
2023-04-18T03:40:06.483Z,12.51
2023-04-18T03:43:10.017Z,12.46
2023-04-18T03:46:12.886Z,12.37
2023-04-18T03:49:16.151Z,12.37
2023-04-18T03:52:20.156Z,12.35
2023-04-18T03:55:23.054Z,12.33
2023-04-18T03:58:26.014Z,12.33
2023-04-18T04:01:29.832Z,12.29
2023-04-18T04:04:33.002Z,12.21
2023-04-18T04:07:55.652Z,12.22
2023-04-18T04:10:58.577Z,12.16
2023-04-18T04:14:02.205Z,12.11
2023-04-18T04:17:06.267Z,12.07
2023-04-18T04:20:09.668Z,12.10
2023-04-18T04:23:12.877Z,12.05
2023-04-18T04:26:15.820Z,11.97
2023-04-18T04:29:21.593Z,12.00
2023-04-18T04:32:27.586Z,12.00
2023-04-18T04:35:32.174Z,11.94
2023-04-18T04:38:38.492Z,11.94
2023-04-18T04:41:41.921Z,11.91
2023-04-18T04:44:46.042Z,11.96
2023-04-18T04:47:49.187Z,11.98
2023-04-18T04:50:53.660Z,11.99
2023-04-18T04:53:56.744Z,11.96
2023-04-18T04:57:02.199Z,11.99
2023-04-18T05:00:07.666Z,12.00
2023-04-18T05:03:11.626Z,11.99
2023-04-18T05:06:20.448Z,11.90
2023-04-18T05:09:23.252Z,11.97
2023-04-18T05:12:26.879Z,11.98
2023-04-18T05:15:30.745Z,12.03
2023-04-18T05:18:35.016Z,11.98
2023-04-18T05:21:38.354Z,12.01
2023-04-18T05:24:41.962Z,12.03
2023-04-18T05:27:45.510Z,12.06
2023-04-18T05:30:48.924Z,12.09
2023-04-18T05:33:52.312Z,12.02
2023-04-18T05:36:55.579Z,12.12
2023-04-18T05:40:00.574Z,12.12
2023-04-18T05:43:04.525Z,12.23
2023-04-18T05:46:09.133Z,12.36
2023-04-18T05:49:13.120Z,12.36
2023-04-18T05:52:16.301Z,12.47
2023-04-18T05:55:19.193Z,12.55
2023-04-18T05:58:21.800Z,12.60
2023-04-18T06:01:24.703Z,12.71
2023-04-18T06:04:27.859Z,12.83
2023-04-18T06:07:30.690Z,12.86
2023-04-18T06:10:33.814Z,12.93
2023-04-18T06:13:37.281Z,13.02
2023-04-18T06:16:40.252Z,13.07
2023-04-18T06:19:42.937Z,13.22
2023-04-18T06:22:45.807Z,13.21
2023-04-18T06:25:48.482Z,13.30
2023-04-18T06:28:52.136Z,13.43
2023-04-18T06:31:54.839Z,13.50
2023-04-18T06:34:57.741Z,13.49
2023-04-18T06:38:00.271Z,13.66
2023-04-18T06:41:03.196Z,13.71
2023-04-18T06:44:05.774Z,13.73
2023-04-18T06:47:09.248Z,13.86
2023-04-18T06:50:11.865Z,13.91
2023-04-18T06:53:15.164Z,13.89
2023-04-18T06:56:17.742Z,14.02
2023-04-18T06:59:21.662Z,14.10
2023-04-18T07:02:24.562Z,14.00
2023-04-18T07:05:27.715Z,13.97
2023-04-18T07:08:30.346Z,14.01
2023-04-18T07:11:33.264Z,14.03
2023-04-18T07:14:36.128Z,14.17
2023-04-18T07:17:39.008Z,14.21
2023-04-18T07:20:41.750Z,14.33
2023-04-18T07:23:44.614Z,14.22
2023-04-18T07:26:47.438Z,14.31
2023-04-18T07:29:50.766Z,14.41
2023-04-18T07:32:53.386Z,14.52
2023-04-18T07:35:56.230Z,14.73
2023-04-18T07:38:58.963Z,14.90
2023-04-18T07:42:06.241Z,15.08
2023-04-18T07:45:09.084Z,15.07
2023-04-18T07:48:11.987Z,15.22
2023-04-18T07:51:14.813Z,15.42
2023-04-18T07:54:17.756Z,15.65
2023-04-18T07:57:20.463Z,15.86
2023-04-18T08:00:24.253Z,15.91
2023-04-18T08:03:27.837Z,16.07
2023-04-18T08:06:30.836Z,15.72
2023-04-18T08:09:34.434Z,15.93
2023-04-18T08:12:37.541Z,15.89
2023-04-18T08:15:40.829Z,16.07
2023-04-18T08:18:43.301Z,16.02
2023-04-18T08:21:46.341Z,16.14
2023-04-18T08:25:03.276Z,16.26
2023-04-18T08:28:07.873Z,16.28
2023-04-18T08:31:14.896Z,16.29
2023-04-18T08:34:18.558Z,16.53
2023-04-18T08:37:21.101Z,16.75
2023-04-18T08:40:24.276Z,17.07
2023-04-18T08:43:26.904Z,17.20
2023-04-18T08:46:34.144Z,17.25
2023-04-18T08:49:37.376Z,17.23
2023-04-18T08:52:45.604Z,17.32
2023-04-18T08:55:54.002Z,17.27
2023-04-18T08:59:00.229Z,17.05
2023-04-18T09:02:04.232Z,17.00
2023-04-18T09:05:11.853Z,17.05
2023-04-18T09:08:24.062Z,16.91
2023-04-18T09:11:29.271Z,17.05
2023-04-18T09:14:33.642Z,16.95
2023-04-18T09:17:38.852Z,17.12
2023-04-18T09:20:42.434Z,17.30
2023-04-18T09:23:47.477Z,17.30
2023-04-18T09:26:51.296Z,17.32
2023-04-18T09:29:56.519Z,17.50
2023-04-18T09:33:01.577Z,17.68
2023-04-18T09:36:20.373Z,17.80
2023-04-18T09:39:29.329Z,17.96
2023-04-18T09:42:36.240Z,18.13
2023-04-18T09:45:38.925Z,18.16
2023-04-18T09:48:42.017Z,17.89
2023-04-18T09:51:46.091Z,17.71
2023-04-18T09:54:49.838Z,17.84
2023-04-18T09:57:53.330Z,17.75
2023-04-18T10:00:56.947Z,17.79
2023-04-18T10:04:01.853Z,17.63
2023-04-18T10:07:04.728Z,17.72
2023-04-18T10:10:08.071Z,17.56
2023-04-18T10:13:11.945Z,17.62
2023-04-18T10:16:15.179Z,17.79
2023-04-18T10:19:26.153Z,17.68
2023-04-18T10:22:29.040Z,17.79
2023-04-18T10:25:41.276Z,17.83
2023-04-18T10:28:56.444Z,17.93
2023-04-18T10:32:06.235Z,18.29
2023-04-18T10:35:10.825Z,18.44
2023-04-18T10:38:17.242Z,18.47
2023-04-18T10:41:22.311Z,18.35
2023-04-18T10:44:25.095Z,18.45
2023-04-18T10:47:28.059Z,18.59
2023-04-18T10:50:30.803Z,18.80
2023-04-18T10:53:33.581Z,18.56
2023-04-18T10:56:36.665Z,18.81
2023-04-18T10:59:44.128Z,18.93
2023-04-18T11:02:52.328Z,18.91
2023-04-18T11:06:01.976Z,19.06
2023-04-18T11:09:11.869Z,18.93
2023-04-18T11:12:14.721Z,19.08
2023-04-18T11:15:22.164Z,19.10
2023-04-18T11:18:25.267Z,19.20
2023-04-18T11:21:30.679Z,19.00
2023-04-18T11:24:34.294Z,19.17
2023-04-18T11:27:36.810Z,19.20
2023-04-18T11:30:41.297Z,19.13
2023-04-18T11:33:47.306Z,19.17
2023-04-18T11:36:51.483Z,19.27
2023-04-18T11:39:54.171Z,19.28
2023-04-18T11:42:57.060Z,19.28
2023-04-18T11:45:59.997Z,19.40
2023-04-18T11:49:03.015Z,19.52
2023-04-18T11:52:11.740Z,19.43
2023-04-18T11:55:14.692Z,19.43
2023-04-18T11:58:17.222Z,19.45
2023-04-18T12:01:22.020Z,19.58
2023-04-18T12:04:25.129Z,19.62
2023-04-18T12:07:34.907Z,19.76
2023-04-18T12:10:38.771Z,19.72
2023-04-18T12:13:41.364Z,19.87
2023-04-18T12:16:44.478Z,19.91
2023-04-18T12:19:50.168Z,19.82
2023-04-18T12:22:55.123Z,20.08
2023-04-18T12:26:06.995Z,20.13
2023-04-18T12:29:09.998Z,20.06
2023-04-18T12:32:12.540Z,19.93
2023-04-18T12:35:16.548Z,20.05
2023-04-18T12:38:23.525Z,20.09
2023-04-18T12:41:26.395Z,19.92
2023-04-18T12:44:28.918Z,20.07
2023-04-18T12:47:31.792Z,20.19
2023-04-18T12:50:34.823Z,20.10
2023-04-18T12:53:38.503Z,20.32
2023-04-18T12:56:41.143Z,20.33
2023-04-18T12:59:43.953Z,20.36
2023-04-18T13:02:47.254Z,20.42
2023-04-18T13:05:50.110Z,20.53
2023-04-18T13:08:52.662Z,20.25
2023-04-18T13:11:56.006Z,20.17
2023-04-18T13:14:58.557Z,20.24
2023-04-18T13:18:05.095Z,20.33
2023-04-18T13:21:08.309Z,20.33
2023-04-18T13:24:11.258Z,20.38
2023-04-18T13:27:14.525Z,20.42
2023-04-18T13:30:17.452Z,20.29
2023-04-18T13:33:20.726Z,20.35
2023-04-18T13:36:24.303Z,20.21
2023-04-18T13:39:27.858Z,20.40
2023-04-18T13:42:30.759Z,20.35
2023-04-18T13:45:33.223Z,20.50
2023-04-18T13:48:36.195Z,20.58
2023-04-18T13:51:38.848Z,20.65
2023-04-18T13:54:42.017Z,20.59
2023-04-18T13:57:44.506Z,20.42
2023-04-18T14:00:47.397Z,20.52
2023-04-18T14:03:50.464Z,20.65
2023-04-18T14:06:53.041Z,20.56
2023-04-18T14:09:55.916Z,20.41
2023-04-18T14:12:58.478Z,20.02
2023-04-18T14:16:01.343Z,20.26
2023-04-18T14:19:04.431Z,20.21
2023-04-18T14:22:07.943Z,20.38
2023-04-18T14:25:10.682Z,20.42
2023-04-18T14:28:13.589Z,20.23
2023-04-18T14:31:16.474Z,20.42
2023-04-18T14:34:19.405Z,20.20
2023-04-18T14:37:22.390Z,20.24
2023-04-18T14:40:25.239Z,20.33
2023-04-18T14:43:27.965Z,20.11
2023-04-18T14:46:30.944Z,19.97
2023-04-18T14:49:33.668Z,20.00
2023-04-18T14:52:36.601Z,19.86
2023-04-18T14:55:39.173Z,19.95
2023-04-18T14:58:42.997Z,19.72
2023-04-18T15:01:45.853Z,19.84
2023-04-18T15:04:49.654Z,19.83
2023-04-18T15:07:52.316Z,19.80
2023-04-18T15:10:55.269Z,19.86
2023-04-18T15:13:57.922Z,19.63
2023-04-18T15:17:02.889Z,19.71
2023-04-18T15:20:07.729Z,19.77
2023-04-18T15:23:13.823Z,19.53
2023-04-18T15:26:16.495Z,19.37
2023-04-18T15:29:19.479Z,19.45
2023-04-18T15:32:23.304Z,19.16
2023-04-18T15:35:26.382Z,19.28
2023-04-18T15:38:30.511Z,19.14
2023-04-18T15:41:36.729Z,19.31
2023-04-18T15:44:39.217Z,19.30
2023-04-18T15:47:42.094Z,19.16
2023-04-18T15:50:50.328Z,19.12
2023-04-18T15:53:53.521Z,19.12
2023-04-18T15:56:56.167Z,19.05
2023-04-18T15:59:59.686Z,19.08
2023-04-18T16:03:02.355Z,18.95
2023-04-18T16:06:05.370Z,18.97
2023-04-18T16:09:08.218Z,18.99
2023-04-18T16:12:11.084Z,18.97
2023-04-18T16:15:13.577Z,18.95
2023-04-18T16:18:16.509Z,18.78
2023-04-18T16:21:19.087Z,18.80
2023-04-18T16:24:21.931Z,18.71
2023-04-18T16:27:24.516Z,18.68
2023-04-18T16:30:27.472Z,18.58
2023-04-18T16:33:30.529Z,18.32
2023-04-18T16:36:34.739Z,18.25
2023-04-18T16:39:37.504Z,18.32
2023-04-18T16:42:41.146Z,18.22
2023-04-18T16:45:43.737Z,18.15
2023-04-18T16:48:46.666Z,18.09
2023-04-18T16:51:49.953Z,18.00
2023-04-18T16:54:53.035Z,17.94
2023-04-18T16:57:55.653Z,17.88
2023-04-18T17:00:58.445Z,17.75
2023-04-18T17:04:02.157Z,17.70
2023-04-18T17:07:05.497Z,17.55
2023-04-18T17:10:10.142Z,17.35
2023-04-18T17:13:13.446Z,17.21
2023-04-18T17:16:16.289Z,17.14
2023-04-18T17:19:19.648Z,16.99
2023-04-18T17:22:22.533Z,16.92
2023-04-18T17:25:25.996Z,16.78
2023-04-18T17:28:28.792Z,16.66
2023-04-18T17:31:32.691Z,16.55
2023-04-18T17:34:35.936Z,16.43
2023-04-18T17:37:39.070Z,16.20
2023-04-18T17:40:42.370Z,16.15
2023-04-18T17:43:46.443Z,16.07
2023-04-18T17:46:50.484Z,15.97
2023-04-18T17:49:53.735Z,15.82
2023-04-18T17:52:57.672Z,15.66
2023-04-18T17:56:00.694Z,15.55
2023-04-18T17:59:03.896Z,15.44
2023-04-18T18:02:07.585Z,15.32
2023-04-18T18:05:13.742Z,15.23
2023-04-18T18:08:17.246Z,15.08
2023-04-18T18:11:21.493Z,15.01
2023-04-18T18:14:24.871Z,14.87
2023-04-18T18:17:29.306Z,14.77
2023-04-18T18:20:32.531Z,14.69
2023-04-18T18:23:36.213Z,14.56
2023-04-18T18:26:39.374Z,14.50
2023-04-18T18:29:42.795Z,14.46
2023-04-18T18:32:45.351Z,14.34
2023-04-18T18:35:56.228Z,14.30
2023-04-18T18:39:04.055Z,14.24
2023-04-18T18:42:07.343Z,14.25
2023-04-18T18:45:10.330Z,14.20
2023-04-18T18:48:14.784Z,14.16
2023-04-18T18:51:20.813Z,14.12
2023-04-18T18:54:25.823Z,14.27
2023-04-18T18:57:28.691Z,14.44
2023-04-18T19:00:32.023Z,14.39
2023-04-18T19:03:37.020Z,14.44
2023-04-18T19:06:41.886Z,14.56
2023-04-18T19:09:46.436Z,14.56
2023-04-18T19:12:49.688Z,14.56
2023-04-18T19:15:52.383Z,14.64
2023-04-18T19:18:56.541Z,14.61
2023-04-18T19:22:01.166Z,14.57
2023-04-18T19:25:04.369Z,14.67
2023-04-18T19:28:07.092Z,14.66
2023-04-18T19:31:10.422Z,14.64
2023-04-18T19:34:13.807Z,14.59
2023-04-18T19:37:17.103Z,14.56
2023-04-18T19:40:20.454Z,14.61
2023-04-18T19:43:27.232Z,14.57
2023-04-18T19:46:30.322Z,14.55
2023-04-18T19:49:36.643Z,14.58
2023-04-18T19:52:39.565Z,14.62
2023-04-18T19:55:44.944Z,14.66
2023-04-18T19:58:49.048Z,14.63
2023-04-18T20:01:52.485Z,14.56
2023-04-18T20:04:55.822Z,14.51
2023-04-18T20:07:58.687Z,14.57
2023-04-18T20:11:02.007Z,14.62
2023-04-18T20:14:04.836Z,14.55
2023-04-18T20:17:07.636Z,14.59
2023-04-18T20:20:11.409Z,14.63
2023-04-18T20:23:14.873Z,14.55
2023-04-18T20:26:17.379Z,14.64
2023-04-18T20:29:20.436Z,14.59
2023-04-18T20:32:23.363Z,14.51
2023-04-18T20:35:28.045Z,14.60
2023-04-18T20:38:30.816Z,14.62
2023-04-18T20:41:34.755Z,14.63
2023-04-18T20:44:38.044Z,14.61
2023-04-18T20:47:42.372Z,14.55
2023-04-18T20:50:51.018Z,14.54
2023-04-18T20:53:54.410Z,14.53
2023-04-18T20:56:56.996Z,14.44
2023-04-18T20:59:59.974Z,14.41
2023-04-18T21:03:03.038Z,14.41
2023-04-18T21:06:06.350Z,14.29
2023-04-18T21:09:09.419Z,14.36
2023-04-18T21:12:17.604Z,14.33
2023-04-18T21:15:20.303Z,14.32
2023-04-18T21:18:23.749Z,14.36
2023-04-18T21:21:27.297Z,14.23
2023-04-18T21:24:30.369Z,14.18
2023-04-18T21:27:32.973Z,14.14
2023-04-18T21:30:36.255Z,14.16
2023-04-18T21:33:38.803Z,14.20
2023-04-18T21:36:41.772Z,14.25
2023-04-18T21:39:44.556Z,14.20
2023-04-18T21:42:49.768Z,14.13
2023-04-18T21:45:52.419Z,14.01
2023-04-18T21:48:55.650Z,14.08
2023-04-18T21:51:58.150Z,14.04
2023-04-18T21:55:01.387Z,14.07
2023-04-18T21:58:03.894Z,14.02
2023-04-18T22:01:06.817Z,13.96
2023-04-18T22:04:09.846Z,13.94
2023-04-18T22:07:12.536Z,13.93
2023-04-18T22:10:16.544Z,13.90
2023-04-18T22:13:19.710Z,13.94
2023-04-18T22:16:22.527Z,13.87
2023-04-18T22:19:25.980Z,13.90
2023-04-18T22:22:28.883Z,13.82
2023-04-18T22:25:31.469Z,13.86
2023-04-18T22:28:34.613Z,13.73
2023-04-18T22:31:37.231Z,13.76
2023-04-18T22:34:40.598Z,13.71
2023-04-18T22:37:43.117Z,13.76
2023-04-18T22:40:46.061Z,13.65
2023-04-18T22:43:48.600Z,13.68
2023-04-18T22:46:54.496Z,13.63
2023-04-18T22:49:57.142Z,13.59
2023-04-18T22:52:59.989Z,13.56
2023-04-18T22:56:02.946Z,13.50
2023-04-18T22:59:05.868Z,13.48
2023-04-18T23:02:08.515Z,13.50
2023-04-18T23:05:11.767Z,13.49
2023-04-18T23:08:14.494Z,13.32
2023-04-18T23:11:17.399Z,13.36
2023-04-18T23:14:21.493Z,13.29
2023-04-18T23:17:24.336Z,13.40
2023-04-18T23:20:26.934Z,13.18
2023-04-18T23:23:29.919Z,13.29
2023-04-18T23:26:32.726Z,13.29
2023-04-18T23:29:39.186Z,13.16
2023-04-18T23:32:41.981Z,13.16
2023-04-18T23:35:44.766Z,13.10
2023-04-18T23:38:47.228Z,13.10
2023-04-18T23:41:50.598Z,13.16
2023-04-18T23:44:53.369Z,13.12
2023-04-18T23:47:56.271Z,13.10
2023-04-18T23:50:59.276Z,13.10
2023-04-18T23:54:02.689Z,13.07
2023-04-18T23:57:05.275Z,13.06
